Energy Centaur — 2AJU3 — position and weather

sailwx.info

Track history (hours):
 
Tides and Currents Weather Stations Pressure Air Temp Water Temp Dewpoint Dewpoint Depression Visibility Wind Speed Wind Dir Waves Ship Positions

Energy Centaur

Last reported at 2018-Jun-05 20:40 UTC. Time now 2018-Jun-21 12:27 UTC.
Position N 31°22' E 032°20'.
Warning: this ship's position is 15 days out of date.

Length 227 m; draft 8 m.

Type: Tanker. MMSI: 235060303.

Date/timePositionNaut miles runAvg speedWind from/ knotsBaromVisibWave heightAir tempDewpointWater temp
2018-Jun-05 20:40N 31°22' E 032°20'38 6.9
2018-Jun-05 15:07N 31°57' E 032°38'46 5.8
2018-Jun-05 07:15N 32°42' E 032°46'1 0.8
2018-Jun-05 06:23N 32°42' E 032°45'  
2018-May-30 15:26N 37°13' E 023°43'1713.9
2018-May-30 14:11N 37°30' E 023°43'313.5
2018-May-30 13:55N 37°34' E 023°43'613.3
2018-May-30 13:30N 37°39' E 023°43'713.7
2018-May-30 13:00N 37°45' E 023°39'611.2
2018-May-30 12:30N 37°50' E 023°35'4 8.2
2018-May-30 12:00N 37°51' E 023°30'0 0.6
2018-May-30 11:28N 37°51' E 023°30'0 0.1
2018-May-30 10:58N 37°51' E 023°30'0 0.1
2018-May-30 10:28N 37°51' E 023°30'0 0.1
2018-May-30 09:58N 37°51' E 023°30'0 0.0
2018-May-30 09:28N 37°51' E 023°30'0 0.0
2018-May-30 08:59N 37°51' E 023°30'0 0.0
2018-May-30 08:30N 37°51' E 023°30'0 0.0
2018-May-30 07:58N 37°51' E 023°30'0 0.0
2018-May-30 07:29N 37°51' E 023°30'0 0.1
2018-May-30 07:01N 37°51' E 023°30'0 0.1
2018-May-30 06:11N 37°51' E 023°30'0 0.0
2018-May-30 05:12N 37°51' E 023°30'0 0.1
2018-May-30 05:00N 37°51' E 023°30'0 0.0
2018-May-30 04:30N 37°51' E 023°30'0 0.0
2018-May-30 04:00N 37°51' E 023°30'0 0.1
2018-May-30 03:30N 37°51' E 023°30'0 0.1
2018-May-30 03:00N 37°51' E 023°30'0 0.1
2018-May-30 02:30N 37°51' E 023°30'0 0.0
2018-May-30 02:00N 37°51' E 023°30'0 0.0
2018-May-30 01:30N 37°51' E 023°30'0 0.1
2018-May-30 01:00N 37°51' E 023°30'0 0.0
2018-May-30 00:30N 37°51' E 023°30'0 0.0
2018-May-30 00:00N 37°51' E 023°30'0 0.0
2018-May-29 23:30N 37°51' E 023°30'0 0.0
2018-May-29 23:00N 37°51' E 023°30'0 0.0
2018-May-29 22:30N 37°51' E 023°30'0 0.0
2018-May-29 22:00N 37°51' E 023°30'0 0.1
2018-May-29 21:30N 37°51' E 023°30'0 0.1
2018-May-29 21:00N 37°51' E 023°30'0 0.0
2018-May-29 20:30N 37°51' E 023°30'0 0.0
2018-May-29 20:00N 37°51' E 023°30'0 0.0
2018-May-29 19:30N 37°51' E 023°30'0 0.0
2018-May-29 19:00N 37°51' E 023°30'0 0.0
2018-May-29 18:30N 37°51' E 023°30'0 0.0
2018-May-29 18:00N 37°51' E 023°30'0 0.1
2018-May-29 17:30N 37°51' E 023°30'0 0.0
2018-May-29 17:00N 37°51' E 023°30'0 0.0
2018-May-29 16:30N 37°51' E 023°30'0 0.0
2018-May-29 16:00N 37°51' E 023°30'0 0.0
2018-May-29 15:30N 37°51' E 023°30'0 0.0
2018-May-29 15:00N 37°51' E 023°30'0 0.0
2018-May-29 14:30N 37°51' E 023°30'0 0.0
2018-May-29 14:00N 37°51' E 023°30'0 0.0
2018-May-29 13:30N 37°51' E 023°30'0 0.0
2018-May-29 13:00N 37°51' E 023°30'0 0.0
2018-May-29 12:30N 37°51' E 023°30'0 0.0
2018-May-29 12:00N 37°51' E 023°30'0 0.1
2018-May-29 11:30N 37°51' E 023°30'0 0.0
2018-May-29 11:00N 37°51' E 023°30'0 0.7
2018-May-29 10:31N 37°51' E 023°30'2 3.8
2018-May-29 10:01N 37°50' E 023°32'3 6.0
2018-May-29 09:31N 37°52' E 023°35'4 8.6
2018-May-29 09:01N 37°56' E 023°36'2 4.8
2018-May-29 08:31N 37°57' E 023°34'0 0.3
2018-May-29 07:59N 37°58' E 023°34'0 0.2
2018-May-29 07:29N 37°58' E 023°34'0 0.0
2018-May-29 06:59N 37°58' E 023°34'0 0.0
2018-May-29 06:29N 37°58' E 023°34'0 0.0
2018-May-29 05:59N 37°58' E 023°34'0 0.0
2018-May-29 05:29N 37°58' E 023°34'0 0.0
2018-May-29 04:59N 37°58' E 023°34'0 0.0
2018-May-29 04:29N 37°58' E 023°34'0 0.0
2018-May-29 03:59N 37°58' E 023°34'0 0.0
2018-May-29 03:29N 37°58' E 023°34'0 0.0
2018-May-29 02:59N 37°58' E 023°34'0 0.0
2018-May-29 02:29N 37°58' E 023°34'0 0.0
2018-May-29 01:59N 37°58' E 023°34'0 0.0
2018-May-29 01:29N 37°58' E 023°34'0 0.0
2018-May-29 00:59N 37°58' E 023°34'0 0.0
2018-May-29 00:29N 37°58' E 023°34'0 0.0
2018-May-28 23:59N 37°58' E 023°34'0 0.0
2018-May-28 23:29N 37°58' E 023°34'0 0.0
2018-May-28 22:59N 37°58' E 023°34'0 0.0
2018-May-28 22:29N 37°58' E 023°34'0 0.0
2018-May-28 21:59N 37°58' E 023°34'0 0.0
2018-May-28 21:29N 37°58' E 023°34'0 0.0
2018-May-28 20:59N 37°58' E 023°34'0 0.0
2018-May-28 20:29N 37°58' E 023°34'0 0.0
2018-May-28 19:59N 37°58' E 023°34'0 0.0
2018-May-28 19:29N 37°58' E 023°34'0 0.0
2018-May-28 18:56N 37°58' E 023°34'0 0.0
2018-May-28 18:29N 37°58' E 023°34'0 0.0
2018-May-28 17:59N 37°58' E 023°34'0 0.0
2018-May-28 17:29N 37°58' E 023°34'0 0.0
2018-May-28 16:59N 37°58' E 023°34'0 0.0
2018-May-28 16:29N 37°58' E 023°34'0 0.0
2018-May-28 15:59N 37°58' E 023°34'0 0.0
2018-May-28 15:29N 37°58' E 023°34'0 0.0
2018-May-28 14:59N 37°58' E 023°34'0 0.0
2018-May-28 14:29N 37°58' E 023°34'0 0.0
2018-May-28 13:59N 37°58' E 023°34'0 0.0
2018-May-28 13:29N 37°58' E 023°34'0 0.0
2018-May-28 12:59N 37°58' E 023°34'0 0.0
2018-May-28 12:29N 37°58' E 023°34'0 0.0
2018-May-28 11:59N 37°58' E 023°34'0 0.0
2018-May-28 11:29N 37°58' E 023°34'0 0.0
2018-May-28 10:59N 37°58' E 023°34'0 0.0
2018-May-28 10:29N 37°58' E 023°34'0 0.0
2018-May-28 09:59N 37°58' E 023°34'0 0.0
2018-May-28 09:29N 37°58' E 023°34'0 0.0
2018-May-28 08:59N 37°58' E 023°34'0 0.0
2018-May-28 08:29N 37°58' E 023°34'0 0.0
2018-May-28 07:59N 37°58' E 023°34'0 0.0
2018-May-28 07:29N 37°58' E 023°34'0 0.0
2018-May-28 06:56N 37°58' E 023°34'0 0.0
2018-May-28 06:29N 37°58' E 023°34'0 0.0
2018-May-28 05:59N 37°58' E 023°34'0 0.0
2018-May-28 05:29N 37°58' E 023°34'0 0.0
2018-May-28 04:59N 37°58' E 023°34'0 0.0
2018-May-28 04:29N 37°58' E 023°34'0 0.0
2018-May-28 03:59N 37°58' E 023°34'0 0.0
2018-May-28 03:29N 37°58' E 023°34'0 0.0
2018-May-28 02:59N 37°58' E 023°34'0 0.0
2018-May-28 02:29N 37°58' E 023°34'0 0.0
2018-May-28 01:56N 37°58' E 023°34'0 0.0
2018-May-28 01:29N 37°58' E 023°34'0 0.0
2018-May-28 00:59N 37°58' E 023°34'0 0.0
2018-May-28 00:29N 37°58' E 023°34'0 0.0
2018-May-27 23:59N 37°58' E 023°34'0 0.0
2018-May-27 23:29N 37°58' E 023°34'0 0.0
2018-May-27 22:59N 37°58' E 023°34'0 0.0
2018-May-27 22:29N 37°58' E 023°34'0 0.0
2018-May-27 21:59N 37°58' E 023°34'0 0.0
2018-May-27 21:29N 37°58' E 023°34'0 0.0
2018-May-27 20:59N 37°58' E 023°34'0 0.0
2018-May-27 20:29N 37°58' E 023°34'0 0.0
2018-May-27 19:59N 37°58' E 023°34'0 0.0
2018-May-27 19:29N 37°58' E 023°34'0 0.0
2018-May-27 18:59N 37°58' E 023°34'0 0.0
2018-May-27 18:29N 37°58' E 023°34'0 0.0
2018-May-27 17:59N 37°58' E 023°34'0 0.0
2018-May-27 17:29N 37°58' E 023°34'0 0.0
2018-May-27 16:59N 37°58' E 023°34'0 0.0
2018-May-27 16:26N 37°58' E 023°34'0 0.0
2018-May-27 15:59N 37°58' E 023°34'0 0.0
2018-May-27 15:29N 37°58' E 023°34'0 0.0
2018-May-27 14:59N 37°58' E 023°34'0 0.0
2018-May-27 14:29N 37°58' E 023°34'0 0.0
2018-May-27 13:59N 37°58' E 023°34'0 0.0
2018-May-27 13:29N 37°58' E 023°34'0 0.0
2018-May-27 12:59N 37°58' E 023°34'0 0.0
2018-May-27 12:29N 37°58' E 023°34'0 0.0
2018-May-27 11:59N 37°58' E 023°34'0 0.0
2018-May-27 11:29N 37°58' E 023°34'0 0.0
2018-May-27 10:59N 37°58' E 023°34'0 0.0
2018-May-27 10:29N 37°58' E 023°34'0 0.0
2018-May-27 09:59N 37°58' E 023°34'0 0.0
2018-May-27 09:29N 37°58' E 023°34'0 0.0
2018-May-27 08:59N 37°58' E 023°34'0 0.0
2018-May-27 08:29N 37°58' E 023°34'0 0.0
2018-May-27 07:59N 37°58' E 023°34'0 0.0
2018-May-27 07:29N 37°58' E 023°34'0 0.0
2018-May-27 06:59N 37°58' E 023°34'0 0.0
2018-May-27 06:29N 37°58' E 023°34'0 0.0
2018-May-27 05:59N 37°58' E 023°34'0 0.0
2018-May-27 05:29N 37°58' E 023°34'0 0.0
2018-May-27 04:59N 37°58' E 023°34'0 0.0
2018-May-27 04:29N 37°58' E 023°34'0 0.0
2018-May-27 03:59N 37°58' E 023°34'0 0.0
2018-May-27 03:29N 37°58' E 023°34'0 0.0
2018-May-27 02:59N 37°58' E 023°34'0 0.0
2018-May-27 02:29N 37°58' E 023°34'0 0.0
2018-May-27 01:56N 37°58' E 023°34'0 0.0
2018-May-27 01:29N 37°58' E 023°34'0 0.0
2018-May-27 00:59N 37°58' E 023°34'0 0.0
2018-May-27 00:29N 37°58' E 023°34'0 0.0
2018-May-26 23:59N 37°58' E 023°34'0 0.0
2018-May-26 23:29N 37°58' E 023°34'0 0.0
2018-May-26 22:59N 37°58' E 023°34'0 0.0
2018-May-26 22:29N 37°58' E 023°34'0 0.0
2018-May-26 21:59N 37°58' E 023°34'0 0.0
2018-May-26 21:29N 37°58' E 023°34'0 0.0
2018-May-26 20:59N 37°58' E 023°34'  
Track history (hours):
 
Tides and Currents Weather Stations Pressure Air Temp Water Temp Dewpoint Dewpoint Depression Visibility Wind Speed Wind Dir Waves Ship Positions

Energy Centaur

Last reported at 2018-Jun-05 20:40 UTC. Time now 2018-Jun-21 12:27 UTC.
Position N 31°22' E 032°20'.
Warning: this ship's position is 15 days out of date.

Length 227 m; draft 8 m.

Type: Tanker. MMSI: 235060303.

Date/timePositionNaut miles runAvg speedWind from/ knotsBaromVisibWave heightAir tempDewpointWater temp
2018-Jun-05 20:40N 31°22' E 032°20'38 6.9
2018-Jun-05 15:07N 31°57' E 032°38'46 5.8
2018-Jun-05 07:15N 32°42' E 032°46'1 0.8
2018-Jun-05 06:23N 32°42' E 032°45'  
2018-May-30 15:26N 37°13' E 023°43'1713.9
2018-May-30 14:11N 37°30' E 023°43'313.5
2018-May-30 13:55N 37°34' E 023°43'613.3
2018-May-30 13:30N 37°39' E 023°43'713.7
2018-May-30 13:00N 37°45' E 023°39'611.2
2018-May-30 12:30N 37°50' E 023°35'4 8.2
2018-May-30 12:00N 37°51' E 023°30'0 0.6
2018-May-30 11:28N 37°51' E 023°30'0 0.1
2018-May-30 10:58N 37°51' E 023°30'0 0.1
2018-May-30 10:28N 37°51' E 023°30'0 0.1
2018-May-30 09:58N 37°51' E 023°30'0 0.0
2018-May-30 09:28N 37°51' E 023°30'0 0.0
2018-May-30 08:59N 37°51' E 023°30'0 0.0
2018-May-30 08:30N 37°51' E 023°30'0 0.0
2018-May-30 07:58N 37°51' E 023°30'0 0.0
2018-May-30 07:29N 37°51' E 023°30'0 0.1
2018-May-30 07:01N 37°51' E 023°30'0 0.1
2018-May-30 06:11N 37°51' E 023°30'0 0.0
2018-May-30 05:12N 37°51' E 023°30'0 0.1
2018-May-30 05:00N 37°51' E 023°30'0 0.0
2018-May-30 04:30N 37°51' E 023°30'0 0.0
2018-May-30 04:00N 37°51' E 023°30'0 0.1
2018-May-30 03:30N 37°51' E 023°30'0 0.1
2018-May-30 03:00N 37°51' E 023°30'0 0.1
2018-May-30 02:30N 37°51' E 023°30'0 0.0
2018-May-30 02:00N 37°51' E 023°30'0 0.0
2018-May-30 01:30N 37°51' E 023°30'0 0.1
2018-May-30 01:00N 37°51' E 023°30'0 0.0
2018-May-30 00:30N 37°51' E 023°30'0 0.0
2018-May-30 00:00N 37°51' E 023°30'0 0.0
2018-May-29 23:30N 37°51' E 023°30'0 0.0
2018-May-29 23:00N 37°51' E 023°30'0 0.0
2018-May-29 22:30N 37°51' E 023°30'0 0.0
2018-May-29 22:00N 37°51' E 023°30'0 0.1
2018-May-29 21:30N 37°51' E 023°30'0 0.1
2018-May-29 21:00N 37°51' E 023°30'0 0.0
2018-May-29 20:30N 37°51' E 023°30'0 0.0
2018-May-29 20:00N 37°51' E 023°30'0 0.0
2018-May-29 19:30N 37°51' E 023°30'0 0.0
2018-May-29 19:00N 37°51' E 023°30'0 0.0
2018-May-29 18:30N 37°51' E 023°30'0 0.0
2018-May-29 18:00N 37°51' E 023°30'0 0.1
2018-May-29 17:30N 37°51' E 023°30'0 0.0
2018-May-29 17:00N 37°51' E 023°30'0 0.0
2018-May-29 16:30N 37°51' E 023°30'0 0.0
2018-May-29 16:00N 37°51' E 023°30'0 0.0
2018-May-29 15:30N 37°51' E 023°30'0 0.0
2018-May-29 15:00N 37°51' E 023°30'0 0.0
2018-May-29 14:30N 37°51' E 023°30'0 0.0
2018-May-29 14:00N 37°51' E 023°30'0 0.0
2018-May-29 13:30N 37°51' E 023°30'0 0.0
2018-May-29 13:00N 37°51' E 023°30'0 0.0
2018-May-29 12:30N 37°51' E 023°30'0 0.0
2018-May-29 12:00N 37°51' E 023°30'0 0.1
2018-May-29 11:30N 37°51' E 023°30'0 0.0
2018-May-29 11:00N 37°51' E 023°30'0 0.7
2018-May-29 10:31N 37°51' E 023°30'2 3.8
2018-May-29 10:01N 37°50' E 023°32'3 6.0
2018-May-29 09:31N 37°52' E 023°35'4 8.6
2018-May-29 09:01N 37°56' E 023°36'2 4.8
2018-May-29 08:31N 37°57' E 023°34'0 0.3
2018-May-29 07:59N 37°58' E 023°34'0 0.2
2018-May-29 07:29N 37°58' E 023°34'0 0.0
2018-May-29 06:59N 37°58' E 023°34'0 0.0
2018-May-29 06:29N 37°58' E 023°34'0 0.0
2018-May-29 05:59N 37°58' E 023°34'0 0.0
2018-May-29 05:29N 37°58' E 023°34'0 0.0
2018-May-29 04:59N 37°58' E 023°34'0 0.0
2018-May-29 04:29N 37°58' E 023°34'0 0.0
2018-May-29 03:59N 37°58' E 023°34'0 0.0
2018-May-29 03:29N 37°58' E 023°34'0 0.0
2018-May-29 02:59N 37°58' E 023°34'0 0.0
2018-May-29 02:29N 37°58' E 023°34'0 0.0
2018-May-29 01:59N 37°58' E 023°34'0 0.0
2018-May-29 01:29N 37°58' E 023°34'0 0.0
2018-May-29 00:59N 37°58' E 023°34'0 0.0
2018-May-29 00:29N 37°58' E 023°34'0 0.0
2018-May-28 23:59N 37°58' E 023°34'0 0.0
2018-May-28 23:29N 37°58' E 023°34'0 0.0
2018-May-28 22:59N 37°58' E 023°34'0 0.0
2018-May-28 22:29N 37°58' E 023°34'0 0.0
2018-May-28 21:59N 37°58' E 023°34'0 0.0
2018-May-28 21:29N 37°58' E 023°34'0 0.0
2018-May-28 20:59N 37°58' E 023°34'0 0.0
2018-May-28 20:29N 37°58' E 023°34'0 0.0
2018-May-28 19:59N 37°58' E 023°34'0 0.0
2018-May-28 19:29N 37°58' E 023°34'0 0.0
2018-May-28 18:56N 37°58' E 023°34'0 0.0
2018-May-28 18:29N 37°58' E 023°34'0 0.0
2018-May-28 17:59N 37°58' E 023°34'0 0.0
2018-May-28 17:29N 37°58' E 023°34'0 0.0
2018-May-28 16:59N 37°58' E 023°34'0 0.0
2018-May-28 16:29N 37°58' E 023°34'0 0.0
2018-May-28 15:59N 37°58' E 023°34'0 0.0
2018-May-28 15:29N 37°58' E 023°34'0 0.0
2018-May-28 14:59N 37°58' E 023°34'0 0.0
2018-May-28 14:29N 37°58' E 023°34'0 0.0
2018-May-28 13:59N 37°58' E 023°34'0 0.0
2018-May-28 13:29N 37°58' E 023°34'0 0.0
2018-May-28 12:59N 37°58' E 023°34'0 0.0
2018-May-28 12:29N 37°58' E 023°34'0 0.0
2018-May-28 11:59N 37°58' E 023°34'0 0.0
2018-May-28 11:29N 37°58' E 023°34'0 0.0
2018-May-28 10:59N 37°58' E 023°34'0 0.0
2018-May-28 10:29N 37°58' E 023°34'0 0.0
2018-May-28 09:59N 37°58' E 023°34'0 0.0
2018-May-28 09:29N 37°58' E 023°34'0 0.0
2018-May-28 08:59N 37°58' E 023°34'0 0.0
2018-May-28 08:29N 37°58' E 023°34'0 0.0
2018-May-28 07:59N 37°58' E 023°34'0 0.0
2018-May-28 07:29N 37°58' E 023°34'0 0.0
2018-May-28 06:56N 37°58' E 023°34'0 0.0
2018-May-28 06:29N 37°58' E 023°34'0 0.0
2018-May-28 05:59N 37°58' E 023°34'0 0.0
2018-May-28 05:29N 37°58' E 023°34'0 0.0
2018-May-28 04:59N 37°58' E 023°34'0 0.0
2018-May-28 04:29N 37°58' E 023°34'0 0.0
2018-May-28 03:59N 37°58' E 023°34'0 0.0
2018-May-28 03:29N 37°58' E 023°34'0 0.0
2018-May-28 02:59N 37°58' E 023°34'0 0.0
2018-May-28 02:29N 37°58' E 023°34'0 0.0
2018-May-28 01:56N 37°58' E 023°34'0 0.0
2018-May-28 01:29N 37°58' E 023°34'0 0.0
2018-May-28 00:59N 37°58' E 023°34'0 0.0
2018-May-28 00:29N 37°58' E 023°34'0 0.0
2018-May-27 23:59N 37°58' E 023°34'0 0.0
2018-May-27 23:29N 37°58' E 023°34'0 0.0
2018-May-27 22:59N 37°58' E 023°34'0 0.0
2018-May-27 22:29N 37°58' E 023°34'0 0.0
2018-May-27 21:59N 37°58' E 023°34'0 0.0
2018-May-27 21:29N 37°58' E 023°34'0 0.0
2018-May-27 20:59N 37°58' E 023°34'0 0.0
2018-May-27 20:29N 37°58' E 023°34'0 0.0
2018-May-27 19:59N 37°58' E 023°34'0 0.0
2018-May-27 19:29N 37°58' E 023°34'0 0.0
2018-May-27 18:59N 37°58' E 023°34'0 0.0
2018-May-27 18:29N 37°58' E 023°34'0 0.0
2018-May-27 17:59N 37°58' E 023°34'0 0.0
2018-May-27 17:29N 37°58' E 023°34'0 0.0
2018-May-27 16:59N 37°58' E 023°34'0 0.0
2018-May-27 16:26N 37°58' E 023°34'0 0.0
2018-May-27 15:59N 37°58' E 023°34'0 0.0
2018-May-27 15:29N 37°58' E 023°34'0 0.0
2018-May-27 14:59N 37°58' E 023°34'0 0.0
2018-May-27 14:29N 37°58' E 023°34'0 0.0
2018-May-27 13:59N 37°58' E 023°34'0 0.0
2018-May-27 13:29N 37°58' E 023°34'0 0.0
2018-May-27 12:59N 37°58' E 023°34'0 0.0
2018-May-27 12:29N 37°58' E 023°34'0 0.0
2018-May-27 11:59N 37°58' E 023°34'0 0.0
2018-May-27 11:29N 37°58' E 023°34'0 0.0
2018-May-27 10:59N 37°58' E 023°34'0 0.0
2018-May-27 10:29N 37°58' E 023°34'0 0.0
2018-May-27 09:59N 37°58' E 023°34'0 0.0
2018-May-27 09:29N 37°58' E 023°34'0 0.0
2018-May-27 08:59N 37°58' E 023°34'0 0.0
2018-May-27 08:29N 37°58' E 023°34'0 0.0
2018-May-27 07:59N 37°58' E 023°34'0 0.0
2018-May-27 07:29N 37°58' E 023°34'0 0.0
2018-May-27 06:59N 37°58' E 023°34'0 0.0
2018-May-27 06:29N 37°58' E 023°34'0 0.0
2018-May-27 05:59N 37°58' E 023°34'0 0.0
2018-May-27 05:29N 37°58' E 023°34'0 0.0
2018-May-27 04:59N 37°58' E 023°34'0 0.0
2018-May-27 04:29N 37°58' E 023°34'0 0.0
2018-May-27 03:59N 37°58' E 023°34'0 0.0
2018-May-27 03:29N 37°58' E 023°34'0 0.0
2018-May-27 02:59N 37°58' E 023°34'0 0.0
2018-May-27 02:29N 37°58' E 023°34'0 0.0
2018-May-27 01:56N 37°58' E 023°34'0 0.0
2018-May-27 01:29N 37°58' E 023°34'0 0.0
2018-May-27 00:59N 37°58' E 023°34'0 0.0
2018-May-27 00:29N 37°58' E 023°34'0 0.0
2018-May-26 23:59N 37°58' E 023°34'0 0.0
2018-May-26 23:29N 37°58' E 023°34'0 0.0
2018-May-26 22:59N 37°58' E 023°34'0 0.0
2018-May-26 22:29N 37°58' E 023°34'0 0.0
2018-May-26 21:59N 37°58' E 023°34'0 0.0
2018-May-26 21:29N 37°58' E 023°34'0 0.0
2018-May-26 20:59N 37°58' E 023°34'  

Dump ship's entire track history